sensor_id;sensor_type;location;lat;lon;timestamp;P1;durP1;ratioP1;P2;durP2;ratioP2
76115;SDS011;64847;45.778;12.802;2023-03-31T00:01:06;10.27;;;9.37;;
76115;SDS011;64847;45.778;12.802;2023-03-31T00:03:32;10.27;;;9.37;;
76115;SDS011;64847;45.778;12.802;2023-03-31T00:05:58;10.33;;;9.33;;
76115;SDS011;64847;45.778;12.802;2023-03-31T00:08:25;9.80;;;8.90;;
76115;SDS011;64847;45.778;12.802;2023-03-31T00:10:56;9.97;;;9.17;;
76115;SDS011;64847;45.778;12.802;2023-03-31T00:13:22;10.33;;;9.33;;
76115;SDS011;64847;45.778;12.802;2023-03-31T00:15:48;9.57;;;8.50;;
76115;SDS011;64847;45.778;12.802;2023-03-31T00:18:13;9.77;;;8.87;;
76115;SDS011;64847;45.778;12.802;2023-03-31T00:20:39;10.20;;;8.93;;
76115;SDS011;64847;45.778;12.802;2023-03-31T00:23:06;9.43;;;8.53;;
76115;SDS011;64847;45.778;12.802;2023-03-31T00:25:34;9.93;;;8.67;;
76115;SDS011;64847;45.778;12.802;2023-03-31T00:28:03;8.60;;;7.80;;
76115;SDS011;64847;45.778;12.802;2023-03-31T00:30:28;8.67;;;7.87;;
76115;SDS011;64847;45.778;12.802;2023-03-31T00:32:53;8.80;;;8.10;;
76115;SDS011;64847;45.778;12.802;2023-03-31T00:35:19;8.70;;;8.00;;
76115;SDS011;64847;45.778;12.802;2023-03-31T00:37:45;9.20;;;8.40;;
76115;SDS011;64847;45.778;12.802;2023-03-31T00:40:11;10.23;;;9.23;;
76115;SDS011;64847;45.778;12.802;2023-03-31T00:42:39;9.83;;;8.83;;
76115;SDS011;64847;45.778;12.802;2023-03-31T00:48:05;8.97;;;8.07;;
76115;SDS011;64847;45.778;12.802;2023-03-31T00:50:35;8.63;;;7.90;;
76115;SDS011;64847;45.778;12.802;2023-03-31T00:53:03;9.90;;;8.87;;
76115;SDS011;64847;45.778;12.802;2023-03-31T00:55:37;9.00;;;8.10;;
76115;SDS011;64847;45.778;12.802;2023-03-31T00:58:05;9.17;;;8.37;;
76115;SDS011;64847;45.778;12.802;2023-03-31T01:00:31;8.83;;;7.93;;
76115;SDS011;64847;45.778;12.802;2023-03-31T01:02:57;9.57;;;8.60;;
76115;SDS011;64847;45.778;12.802;2023-03-31T01:05:38;9.03;;;8.23;;
76115;SDS011;64847;45.778;12.802;2023-03-31T01:08:27;8.20;;;7.50;;
76115;SDS011;64847;45.778;12.802;2023-03-31T01:10:54;8.73;;;7.63;;
76115;SDS011;64847;45.778;12.802;2023-03-31T01:13:21;10.30;;;8.83;;
76115;SDS011;64847;45.778;12.802;2023-03-31T01:15:48;8.53;;;7.70;;
76115;SDS011;64847;45.778;12.802;2023-03-31T01:18:13;8.93;;;8.13;;
76115;SDS011;64847;45.778;12.802;2023-03-31T01:29:10;9.53;;;8.53;;
76115;SDS011;64847;45.778;12.802;2023-03-31T01:32:05;9.20;;;8.33;;
76115;SDS011;64847;45.778;12.802;2023-03-31T01:40:13;9.13;;;8.23;;
76115;SDS011;64847;45.778;12.802;2023-03-31T01:42:54;10.00;;;9.00;;
76115;SDS011;64847;45.778;12.802;2023-03-31T01:48:15;9.03;;;8.23;;
76115;SDS011;64847;45.778;12.802;2023-03-31T01:50:56;8.97;;;8.07;;
76115;SDS011;64847;45.778;12.802;2023-03-31T01:53:30;8.93;;;7.67;;
76115;SDS011;64847;45.778;12.802;2023-03-31T01:58:39;9.07;;;8.20;;
76115;SDS011;64847;45.778;12.802;2023-03-31T02:01:18;7.73;;;7.03;;
76115;SDS011;64847;45.778;12.802;2023-03-31T02:03:47;9.37;;;7.20;;
76115;SDS011;64847;45.778;12.802;2023-03-31T02:06:17;8.30;;;7.03;;
76115;SDS011;64847;45.778;12.802;2023-03-31T02:08:50;7.13;;;6.53;;
76115;SDS011;64847;45.778;12.802;2023-03-31T02:11:19;6.03;;;5.50;;
76115;SDS011;64847;45.778;12.802;2023-03-31T02:13:46;6.40;;;5.67;;
76115;SDS011;64847;45.778;12.802;2023-03-31T02:16:14;5.23;;;4.83;;
76115;SDS011;64847;45.778;12.802;2023-03-31T02:18:46;4.90;;;4.40;;
76115;SDS011;64847;45.778;12.802;2023-03-31T02:21:14;4.87;;;4.37;;
76115;SDS011;64847;45.778;12.802;2023-03-31T02:23:40;4.67;;;4.23;;
76115;SDS011;64847;45.778;12.802;2023-03-31T02:26:13;4.63;;;4.27;;
76115;SDS011;64847;45.778;12.802;2023-03-31T02:28:40;5.30;;;4.20;;
76115;SDS011;64847;45.778;12.802;2023-03-31T02:33:31;4.13;;;3.83;;
76115;SDS011;64847;45.778;12.802;2023-03-31T02:35:57;3.80;;;3.40;;
76115;SDS011;64847;45.778;12.802;2023-03-31T02:38:23;3.77;;;3.47;;
76115;SDS011;64847;45.778;12.802;2023-03-31T02:40:49;3.63;;;3.30;;
76115;SDS011;64847;45.778;12.802;2023-03-31T02:43:14;4.07;;;3.20;;
76115;SDS011;64847;45.778;12.802;2023-03-31T02:45:47;3.27;;;2.97;;
76115;SDS011;64847;45.778;12.802;2023-03-31T02:48:28;3.37;;;3.03;;
76115;SDS011;64847;45.778;12.802;2023-03-31T02:51:00;2.90;;;2.70;;
76115;SDS011;64847;45.778;12.802;2023-03-31T02:56:46;3.97;;;3.00;;
76115;SDS011;64847;45.778;12.802;2023-03-31T03:10:11;3.40;;;3.10;;
76115;SDS011;64847;45.778;12.802;2023-03-31T03:12:56;3.80;;;2.97;;
76115;SDS011;64847;45.778;12.802;2023-03-31T03:15:25;3.47;;;3.03;;
76115;SDS011;64847;45.778;12.802;2023-03-31T03:17:55;4.57;;;2.87;;
76115;SDS011;64847;45.778;12.802;2023-03-31T03:20:21;3.90;;;2.97;;
76115;SDS011;64847;45.778;12.802;2023-03-31T03:22:47;3.40;;;3.07;;
76115;SDS011;64847;45.778;12.802;2023-03-31T03:25:13;3.20;;;2.90;;
76115;SDS011;64847;45.778;12.802;2023-03-31T03:27:41;3.33;;;3.00;;
76115;SDS011;64847;45.778;12.802;2023-03-31T03:30:07;4.37;;;3.13;;
76115;SDS011;64847;45.778;12.802;2023-03-31T03:32:34;3.30;;;2.60;;
76115;SDS011;64847;45.778;12.802;2023-03-31T03:35:00;3.17;;;2.37;;
76115;SDS011;64847;45.778;12.802;2023-03-31T03:37:26;2.47;;;2.27;;
76115;SDS011;64847;45.778;12.802;2023-03-31T03:39:53;2.90;;;2.63;;
76115;SDS011;64847;45.778;12.802;2023-03-31T03:42:18;2.77;;;2.57;;
76115;SDS011;64847;45.778;12.802;2023-03-31T03:44:43;3.60;;;2.63;;
76115;SDS011;64847;45.778;12.802;2023-03-31T03:47:09;2.87;;;2.60;;
76115;SDS011;64847;45.778;12.802;2023-03-31T03:49:34;3.40;;;2.50;;
76115;SDS011;64847;45.778;12.802;2023-03-31T03:52:00;2.30;;;2.10;;
76115;SDS011;64847;45.778;12.802;2023-03-31T03:54:25;2.50;;;2.30;;
76115;SDS011;64847;45.778;12.802;2023-03-31T03:56:51;2.77;;;2.30;;
76115;SDS011;64847;45.778;12.802;2023-03-31T03:59:16;2.40;;;2.10;;
76115;SDS011;64847;45.778;12.802;2023-03-31T04:01:41;3.13;;;2.17;;
76115;SDS011;64847;45.778;12.802;2023-03-31T04:04:07;2.37;;;2.17;;
76115;SDS011;64847;45.778;12.802;2023-03-31T04:06:32;3.23;;;2.20;;
76115;SDS011;64847;45.778;12.802;2023-03-31T04:08:58;2.10;;;1.90;;
76115;SDS011;64847;45.778;12.802;2023-03-31T04:11:23;2.50;;;2.20;;
76115;SDS011;64847;45.778;12.802;2023-03-31T04:13:49;3.77;;;2.10;;
76115;SDS011;64847;45.778;12.802;2023-03-31T04:16:14;2.80;;;2.20;;
76115;SDS011;64847;45.778;12.802;2023-03-31T04:18:40;2.77;;;2.10;;
76115;SDS011;64847;45.778;12.802;2023-03-31T04:21:09;2.30;;;2.10;;
76115;SDS011;64847;45.778;12.802;2023-03-31T04:23:46;2.87;;;2.17;;
76115;SDS011;64847;45.778;12.802;2023-03-31T04:26:12;2.40;;;2.30;;
76115;SDS011;64847;45.778;12.802;2023-03-31T04:28:39;3.47;;;2.10;;
76115;SDS011;64847;45.778;12.802;2023-03-31T04:31:09;3.23;;;2.03;;
76115;SDS011;64847;45.778;12.802;2023-03-31T04:33:39;2.20;;;2.00;;
76115;SDS011;64847;45.778;12.802;2023-03-31T04:36:05;2.63;;;2.00;;
76115;SDS011;64847;45.778;12.802;2023-03-31T04:38:46;3.77;;;2.30;;
76115;SDS011;64847;45.778;12.802;2023-03-31T04:41:16;2.20;;;2.10;;
76115;SDS011;64847;45.778;12.802;2023-03-31T04:43:42;2.67;;;2.07;;
76115;SDS011;64847;45.778;12.802;2023-03-31T04:46:07;2.37;;;2.17;;
76115;SDS011;64847;45.778;12.802;2023-03-31T04:48:33;2.37;;;2.17;;
76115;SDS011;64847;45.778;12.802;2023-03-31T04:50:59;1.93;;;1.77;;
76115;SDS011;64847;45.778;12.802;2023-03-31T04:53:24;2.30;;;2.10;;
76115;SDS011;64847;45.778;12.802;2023-03-31T04:55:50;2.30;;;2.10;;
76115;SDS011;64847;45.778;12.802;2023-03-31T04:58:16;3.33;;;2.17;;
76115;SDS011;64847;45.778;12.802;2023-03-31T05:00:41;2.67;;;2.20;;
76115;SDS011;64847;45.778;12.802;2023-03-31T05:03:07;2.50;;;2.30;;
76115;SDS011;64847;45.778;12.802;2023-03-31T05:05:33;2.33;;;2.10;;
76115;SDS011;64847;45.778;12.802;2023-03-31T05:07:59;3.10;;;2.10;;
76115;SDS011;64847;45.778;12.802;2023-03-31T05:10:25;2.60;;;2.37;;
76115;SDS011;64847;45.778;12.802;2023-03-31T05:12:50;2.93;;;2.10;;
76115;SDS011;64847;45.778;12.802;2023-03-31T05:15:15;2.20;;;2.00;;
76115;SDS011;64847;45.778;12.802;2023-03-31T05:17:41;2.37;;;2.10;;
76115;SDS011;64847;45.778;12.802;2023-03-31T05:20:08;2.67;;;2.33;;
76115;SDS011;64847;45.778;12.802;2023-03-31T05:22:34;2.90;;;2.27;;
76115;SDS011;64847;45.778;12.802;2023-03-31T05:25:01;2.87;;;2.40;;
76115;SDS011;64847;45.778;12.802;2023-03-31T05:27:27;2.37;;;2.17;;
76115;SDS011;64847;45.778;12.802;2023-03-31T05:29:52;3.23;;;2.23;;
76115;SDS011;64847;45.778;12.802;2023-03-31T05:32:18;2.33;;;2.20;;
76115;SDS011;64847;45.778;12.802;2023-03-31T05:34:43;2.70;;;2.27;;
76115;SDS011;64847;45.778;12.802;2023-03-31T05:37:08;3.13;;;2.40;;
76115;SDS011;64847;45.778;12.802;2023-03-31T05:39:34;2.37;;;2.17;;
76115;SDS011;64847;45.778;12.802;2023-03-31T05:42:00;3.10;;;2.37;;
76115;SDS011;64847;45.778;12.802;2023-03-31T05:44:25;2.87;;;2.63;;
76115;SDS011;64847;45.778;12.802;2023-03-31T05:49:35;3.33;;;2.80;;
76115;SDS011;64847;45.778;12.802;2023-03-31T05:52:02;3.03;;;2.70;;
76115;SDS011;64847;45.778;12.802;2023-03-31T05:54:28;2.47;;;2.37;;
76115;SDS011;64847;45.778;12.802;2023-03-31T05:56:54;4.30;;;2.50;;
76115;SDS011;64847;45.778;12.802;2023-03-31T05:59:19;2.97;;;2.67;;
76115;SDS011;64847;45.778;12.802;2023-03-31T06:01:45;4.60;;;2.97;;
76115;SDS011;64847;45.778;12.802;2023-03-31T06:04:10;2.63;;;2.37;;
76115;SDS011;64847;45.778;12.802;2023-03-31T06:06:36;3.47;;;2.90;;
76115;SDS011;64847;45.778;12.802;2023-03-31T06:09:02;3.73;;;2.37;;
76115;SDS011;64847;45.778;12.802;2023-03-31T06:11:28;3.03;;;2.73;;
76115;SDS011;64847;45.778;12.802;2023-03-31T06:13:54;2.80;;;2.60;;
76115;SDS011;64847;45.778;12.802;2023-03-31T06:16:19;3.90;;;2.93;;
76115;SDS011;64847;45.778;12.802;2023-03-31T06:18:45;3.10;;;2.80;;
76115;SDS011;64847;45.778;12.802;2023-03-31T06:21:14;3.33;;;2.90;;
76115;SDS011;64847;45.778;12.802;2023-03-31T06:23:41;3.23;;;2.93;;
76115;SDS011;64847;45.778;12.802;2023-03-31T06:26:10;3.20;;;2.90;;
76115;SDS011;64847;45.778;12.802;2023-03-31T06:28:37;3.20;;;3.00;;
76115;SDS011;64847;45.778;12.802;2023-03-31T06:31:03;3.23;;;3.00;;
76115;SDS011;64847;45.778;12.802;2023-03-31T06:33:33;2.83;;;2.53;;
76115;SDS011;64847;45.778;12.802;2023-03-31T06:35:59;3.00;;;2.80;;
76115;SDS011;64847;45.778;12.802;2023-03-31T06:38:27;4.60;;;3.30;;
76115;SDS011;64847;45.778;12.802;2023-03-31T06:40:53;3.23;;;2.93;;
76115;SDS011;64847;45.778;12.802;2023-03-31T06:43:18;5.27;;;3.00;;
76115;SDS011;64847;45.778;12.802;2023-03-31T06:45:44;3.50;;;3.00;;
76115;SDS011;64847;45.778;12.802;2023-03-31T06:48:10;3.20;;;3.00;;
76115;SDS011;64847;45.778;12.802;2023-03-31T06:50:36;3.73;;;3.43;;
76115;SDS011;64847;45.778;12.802;2023-03-31T06:53:02;4.40;;;3.63;;
76115;SDS011;64847;45.778;12.802;2023-03-31T06:55:28;4.17;;;3.50;;
76115;SDS011;64847;45.778;12.802;2023-03-31T06:57:54;3.47;;;3.17;;
76115;SDS011;64847;45.778;12.802;2023-03-31T07:00:19;3.40;;;3.10;;
76115;SDS011;64847;45.778;12.802;2023-03-31T07:02:45;3.77;;;3.43;;
76115;SDS011;64847;45.778;12.802;2023-03-31T07:05:10;3.50;;;3.20;;
76115;SDS011;64847;45.778;12.802;2023-03-31T07:07:35;3.40;;;3.10;;
76115;SDS011;64847;45.778;12.802;2023-03-31T07:10:01;3.60;;;3.30;;
76115;SDS011;64847;45.778;12.802;2023-03-31T07:12:26;4.40;;;3.40;;
76115;SDS011;64847;45.778;12.802;2023-03-31T07:14:52;3.33;;;2.93;;
76115;SDS011;64847;45.778;12.802;2023-03-31T07:17:17;3.27;;;2.97;;
76115;SDS011;64847;45.778;12.802;2023-03-31T07:19:43;3.03;;;2.80;;
76115;SDS011;64847;45.778;12.802;2023-03-31T07:22:12;4.47;;;2.87;;
76115;SDS011;64847;45.778;12.802;2023-03-31T07:24:38;3.47;;;3.17;;
76115;SDS011;64847;45.778;12.802;2023-03-31T07:27:03;4.57;;;3.00;;
76115;SDS011;64847;45.778;12.802;2023-03-31T07:29:29;2.87;;;2.67;;
76115;SDS011;64847;45.778;12.802;2023-03-31T07:31:54;3.03;;;2.60;;
76115;SDS011;64847;45.778;12.802;2023-03-31T07:34:21;2.97;;;2.77;;
76115;SDS011;64847;45.778;12.802;2023-03-31T07:36:46;3.67;;;2.73;;
76115;SDS011;64847;45.778;12.802;2023-03-31T07:39:12;3.07;;;2.87;;
76115;SDS011;64847;45.778;12.802;2023-03-31T07:41:37;2.70;;;2.50;;
76115;SDS011;64847;45.778;12.802;2023-03-31T07:44:02;3.00;;;2.70;;
76115;SDS011;64847;45.778;12.802;2023-03-31T07:46:28;2.80;;;2.60;;
76115;SDS011;64847;45.778;12.802;2023-03-31T07:48:54;3.53;;;2.80;;
76115;SDS011;64847;45.778;12.802;2023-03-31T07:51:22;3.57;;;3.13;;
76115;SDS011;64847;45.778;12.802;2023-03-31T07:53:49;2.90;;;2.60;;
76115;SDS011;64847;45.778;12.802;2023-03-31T07:56:16;3.13;;;2.67;;
76115;SDS011;64847;45.778;12.802;2023-03-31T07:58:43;3.43;;;3.13;;
76115;SDS011;64847;45.778;12.802;2023-03-31T08:01:12;2.83;;;2.63;;
76115;SDS011;64847;45.778;12.802;2023-03-31T08:03:41;3.03;;;2.83;;
76115;SDS011;64847;45.778;12.802;2023-03-31T08:06:07;4.03;;;3.10;;
76115;SDS011;64847;45.778;12.802;2023-03-31T08:08:33;3.33;;;3.03;;
76115;SDS011;64847;45.778;12.802;2023-03-31T08:10:59;2.97;;;2.77;;
76115;SDS011;64847;45.778;12.802;2023-03-31T08:13:25;3.50;;;2.90;;
76115;SDS011;64847;45.778;12.802;2023-03-31T08:15:51;2.97;;;2.73;;
76115;SDS011;64847;45.778;12.802;2023-03-31T08:18:16;3.20;;;2.90;;
76115;SDS011;64847;45.778;12.802;2023-03-31T08:20:41;2.97;;;2.77;;
76115;SDS011;64847;45.778;12.802;2023-03-31T08:23:07;2.90;;;2.70;;
76115;SDS011;64847;45.778;12.802;2023-03-31T08:25:33;3.00;;;2.70;;
76115;SDS011;64847;45.778;12.802;2023-03-31T08:28:08;3.20;;;2.60;;
76115;SDS011;64847;45.778;12.802;2023-03-31T08:30:38;2.73;;;2.53;;
76115;SDS011;64847;45.778;12.802;2023-03-31T08:33:03;3.37;;;2.77;;
76115;SDS011;64847;45.778;12.802;2023-03-31T08:35:29;3.07;;;2.83;;
76115;SDS011;64847;45.778;12.802;2023-03-31T08:37:54;3.63;;;2.70;;
76115;SDS011;64847;45.778;12.802;2023-03-31T08:40:21;2.93;;;2.63;;
76115;SDS011;64847;45.778;12.802;2023-03-31T08:42:49;2.97;;;2.77;;
76115;SDS011;64847;45.778;12.802;2023-03-31T08:48:06;3.90;;;3.60;;
76115;SDS011;64847;45.778;12.802;2023-03-31T08:50:42;3.43;;;3.13;;
76115;SDS011;64847;45.778;12.802;2023-03-31T08:55:43;3.77;;;3.10;;
76115;SDS011;64847;45.778;12.802;2023-03-31T09:04:06;3.23;;;2.93;;
76115;SDS011;64847;45.778;12.802;2023-03-31T09:09:34;3.90;;;3.13;;
76115;SDS011;64847;45.778;12.802;2023-03-31T09:12:19;3.77;;;3.20;;
76115;SDS011;64847;45.778;12.802;2023-03-31T09:15:31;5.43;;;3.07;;
76115;SDS011;64847;45.778;12.802;2023-03-31T09:17:41;3.10;;;2.90;;
76115;SDS011;64847;45.778;12.802;2023-03-31T09:20:13;4.33;;;3.00;;
76115;SDS011;64847;45.778;12.802;2023-03-31T09:22:48;3.67;;;3.10;;
76115;SDS011;64847;45.778;12.802;2023-03-31T09:25:24;3.00;;;2.77;;
76115;SDS011;64847;45.778;12.802;2023-03-31T09:27:52;3.83;;;3.23;;
76115;SDS011;64847;45.778;12.802;2023-03-31T09:30:29;3.50;;;3.20;;
76115;SDS011;64847;45.778;12.802;2023-03-31T09:33:10;3.80;;;3.37;;
76115;SDS011;64847;45.778;12.802;2023-03-31T09:35:38;6.23;;;3.33;;
76115;SDS011;64847;45.778;12.802;2023-03-31T09:38:04;3.97;;;3.50;;
76115;SDS011;64847;45.778;12.802;2023-03-31T09:40:29;4.63;;;3.50;;
76115;SDS011;64847;45.778;12.802;2023-03-31T09:42:59;3.83;;;3.27;;
76115;SDS011;64847;45.778;12.802;2023-03-31T09:45:29;3.37;;;3.17;;
76115;SDS011;64847;45.778;12.802;2023-03-31T09:47:56;4.30;;;3.80;;
76115;SDS011;64847;45.778;12.802;2023-03-31T09:50:22;4.20;;;3.77;;
76115;SDS011;64847;45.778;12.802;2023-03-31T09:52:49;4.20;;;3.60;;
76115;SDS011;64847;45.778;12.802;2023-03-31T09:57:53;4.00;;;3.60;;
76115;SDS011;64847;45.778;12.802;2023-03-31T10:00:20;4.27;;;3.87;;
76115;SDS011;64847;45.778;12.802;2023-03-31T10:10:42;5.17;;;3.77;;
76115;SDS011;64847;45.778;12.802;2023-03-31T10:13:08;5.33;;;3.87;;
76115;SDS011;64847;45.778;12.802;2023-03-31T10:15:38;4.70;;;3.93;;
76115;SDS011;64847;45.778;12.802;2023-03-31T10:18:04;5.43;;;3.83;;
76115;SDS011;64847;45.778;12.802;2023-03-31T10:20:36;4.60;;;4.00;;
76115;SDS011;64847;45.778;12.802;2023-03-31T10:23:05;3.80;;;3.50;;
76115;SDS011;64847;45.778;12.802;2023-03-31T10:25:39;4.40;;;3.63;;
76115;SDS011;64847;45.778;12.802;2023-03-31T10:28:05;6.10;;;4.07;;
76115;SDS011;64847;45.778;12.802;2023-03-31T10:30:34;4.37;;;3.80;;
76115;SDS011;64847;45.778;12.802;2023-03-31T10:33:05;4.47;;;4.00;;
76115;SDS011;64847;45.778;12.802;2023-03-31T10:38:04;5.37;;;4.40;;
76115;SDS011;64847;45.778;12.802;2023-03-31T10:40:52;4.90;;;4.13;;
76115;SDS011;64847;45.778;12.802;2023-03-31T10:43:20;8.07;;;4.10;;
76115;SDS011;64847;45.778;12.802;2023-03-31T10:46:09;5.90;;;4.20;;
76115;SDS011;64847;45.778;12.802;2023-03-31T10:48:37;7.60;;;4.10;;
76115;SDS011;64847;45.778;12.802;2023-03-31T10:53:39;10.00;;;5.17;;
76115;SDS011;64847;45.778;12.802;2023-03-31T11:01:21;7.10;;;4.73;;
76115;SDS011;64847;45.778;12.802;2023-03-31T11:06:32;8.17;;;5.17;;
76115;SDS011;64847;45.778;12.802;2023-03-31T11:28:53;10.20;;;7.43;;
76115;SDS011;64847;45.778;12.802;2023-03-31T11:34:15;9.60;;;8.63;;
76115;SDS011;64847;45.778;12.802;2023-03-31T11:42:37;7.37;;;6.60;;
76115;SDS011;64847;45.778;12.802;2023-03-31T11:45:27;10.97;;;7.33;;
76115;SDS011;64847;45.778;12.802;2023-03-31T11:47:58;7.93;;;7.10;;
76115;SDS011;64847;45.778;12.802;2023-03-31T11:50:28;7.83;;;7.03;;
76115;SDS011;64847;45.778;12.802;2023-03-31T11:52:57;8.60;;;7.23;;
76115;SDS011;64847;45.778;12.802;2023-03-31T11:55:26;7.83;;;7.03;;
76115;SDS011;64847;45.778;12.802;2023-03-31T12:00:26;8.43;;;6.90;;
76115;SDS011;64847;45.778;12.802;2023-03-31T12:02:53;7.93;;;7.23;;
76115;SDS011;64847;45.778;12.802;2023-03-31T12:05:22;7.70;;;6.90;;
76115;SDS011;64847;45.778;12.802;2023-03-31T12:15:49;7.73;;;7.03;;
76115;SDS011;64847;45.778;12.802;2023-03-31T12:18:25;9.47;;;7.10;;
76115;SDS011;64847;45.778;12.802;2023-03-31T12:20:59;7.20;;;6.50;;
76115;SDS011;64847;45.778;12.802;2023-03-31T12:23:27;8.10;;;7.00;;
76115;SDS011;64847;45.778;12.802;2023-03-31T12:26:09;8.20;;;6.40;;
76115;SDS011;64847;45.778;12.802;2023-03-31T12:28:57;8.93;;;8.10;;
76115;SDS011;64847;45.778;12.802;2023-03-31T12:31:27;10.57;;;9.47;;
76115;SDS011;64847;45.778;12.802;2023-03-31T12:42:06;11.57;;;10.47;;
76115;SDS011;64847;45.778;12.802;2023-03-31T12:59:34;16.80;;;15.10;;
76115;SDS011;64847;45.778;12.802;2023-03-31T13:04:41;16.87;;;15.17;;
76115;SDS011;64847;45.778;12.802;2023-03-31T13:10:22;14.77;;;13.23;;
76115;SDS011;64847;45.778;12.802;2023-03-31T13:15:39;14.43;;;12.83;;
76115;SDS011;64847;45.778;12.802;2023-03-31T13:18:17;14.77;;;13.00;;
76115;SDS011;64847;45.778;12.802;2023-03-31T13:20:44;15.03;;;13.63;;
76115;SDS011;64847;45.778;12.802;2023-03-31T13:25:38;13.93;;;12.47;;
76115;SDS011;64847;45.778;12.802;2023-03-31T13:33:22;14.23;;;11.90;;
76115;SDS011;64847;45.778;12.802;2023-03-31T13:35:56;12.47;;;11.07;;
76115;SDS011;64847;45.778;12.802;2023-03-31T13:50:09;9.80;;;8.77;;
76115;SDS011;64847;45.778;12.802;2023-03-31T14:03:56;8.07;;;5.90;;
76115;SDS011;64847;45.778;12.802;2023-03-31T14:06:27;7.83;;;6.07;;
76115;SDS011;64847;45.778;12.802;2023-03-31T14:09:07;6.63;;;5.90;;
76115;SDS011;64847;45.778;12.802;2023-03-31T14:11:34;5.90;;;5.30;;
76115;SDS011;64847;45.778;12.802;2023-03-31T14:14:13;5.73;;;4.87;;
76115;SDS011;64847;45.778;12.802;2023-03-31T14:31:28;5.00;;;4.20;;
76115;SDS011;64847;45.778;12.802;2023-03-31T14:36:59;7.20;;;4.37;;
76115;SDS011;64847;45.778;12.802;2023-03-31T14:39:27;5.00;;;4.13;;
76115;SDS011;64847;45.778;12.802;2023-03-31T14:41:57;4.47;;;3.87;;
76115;SDS011;64847;45.778;12.802;2023-03-31T14:44:24;4.73;;;3.80;;
76115;SDS011;64847;45.778;12.802;2023-03-31T14:46:50;6.67;;;4.00;;
76115;SDS011;64847;45.778;12.802;2023-03-31T14:51:58;8.13;;;3.60;;
76115;SDS011;64847;45.778;12.802;2023-03-31T14:54:25;6.43;;;4.00;;
76115;SDS011;64847;45.778;12.802;2023-03-31T14:56:52;9.03;;;4.70;;
76115;SDS011;64847;45.778;12.802;2023-03-31T14:59:23;4.83;;;4.27;;
76115;SDS011;64847;45.778;12.802;2023-03-31T15:01:51;7.13;;;4.60;;
76115;SDS011;64847;45.778;12.802;2023-03-31T15:04:18;8.87;;;4.30;;
76115;SDS011;64847;45.778;12.802;2023-03-31T15:06:46;7.27;;;4.40;;
76115;SDS011;64847;45.778;12.802;2023-03-31T15:09:26;7.73;;;4.23;;
76115;SDS011;64847;45.778;12.802;2023-03-31T15:11:57;8.03;;;3.80;;
76115;SDS011;64847;45.778;12.802;2023-03-31T15:14:31;5.17;;;3.60;;
76115;SDS011;64847;45.778;12.802;2023-03-31T15:16:59;4.93;;;3.47;;
76115;SDS011;64847;45.778;12.802;2023-03-31T15:19:26;4.03;;;3.13;;
76115;SDS011;64847;45.778;12.802;2023-03-31T15:21:54;7.13;;;3.83;;
76115;SDS011;64847;45.778;12.802;2023-03-31T15:24:21;6.20;;;3.93;;
76115;SDS011;64847;45.778;12.802;2023-03-31T15:26:51;9.90;;;3.63;;
76115;SDS011;64847;45.778;12.802;2023-03-31T15:29:34;5.37;;;3.03;;
76115;SDS011;64847;45.778;12.802;2023-03-31T15:32:17;6.13;;;3.17;;
76115;SDS011;64847;45.778;12.802;2023-03-31T15:34:46;6.93;;;3.30;;
76115;SDS011;64847;45.778;12.802;2023-03-31T15:37:12;4.17;;;3.10;;
76115;SDS011;64847;45.778;12.802;2023-03-31T15:39:37;5.20;;;3.27;;
76115;SDS011;64847;45.778;12.802;2023-03-31T15:42:04;5.30;;;3.20;;
76115;SDS011;64847;45.778;12.802;2023-03-31T15:44:37;6.43;;;3.10;;
76115;SDS011;64847;45.778;12.802;2023-03-31T15:49:47;5.57;;;2.90;;
76115;SDS011;64847;45.778;12.802;2023-03-31T15:52:21;7.63;;;3.30;;
76115;SDS011;64847;45.778;12.802;2023-03-31T15:54:57;5.60;;;3.33;;
76115;SDS011;64847;45.778;12.802;2023-03-31T15:57:29;5.57;;;3.50;;
76115;SDS011;64847;45.778;12.802;2023-03-31T15:59:56;6.13;;;3.40;;
76115;SDS011;64847;45.778;12.802;2023-03-31T16:02:25;6.83;;;3.50;;
76115;SDS011;64847;45.778;12.802;2023-03-31T16:05:03;7.47;;;3.57;;
76115;SDS011;64847;45.778;12.802;2023-03-31T16:07:29;4.90;;;3.13;;
76115;SDS011;64847;45.778;12.802;2023-03-31T16:14:57;4.73;;;3.53;;
76115;SDS011;64847;45.778;12.802;2023-03-31T16:17:27;7.73;;;3.90;;
76115;SDS011;64847;45.778;12.802;2023-03-31T16:19:56;6.00;;;3.13;;
76115;SDS011;64847;45.778;12.802;2023-03-31T16:22:25;6.90;;;3.27;;
76115;SDS011;64847;45.778;12.802;2023-03-31T16:24:56;4.53;;;3.17;;
76115;SDS011;64847;45.778;12.802;2023-03-31T16:27:21;6.43;;;3.67;;
76115;SDS011;64847;45.778;12.802;2023-03-31T16:29:47;7.63;;;3.13;;
76115;SDS011;64847;45.778;12.802;2023-03-31T16:32:16;6.93;;;3.50;;
76115;SDS011;64847;45.778;12.802;2023-03-31T16:34:59;6.23;;;3.40;;
76115;SDS011;64847;45.778;12.802;2023-03-31T16:37:25;7.07;;;3.40;;
76115;SDS011;64847;45.778;12.802;2023-03-31T16:39:51;4.23;;;3.07;;
76115;SDS011;64847;45.778;12.802;2023-03-31T16:42:17;4.27;;;3.20;;
76115;SDS011;64847;45.778;12.802;2023-03-31T16:44:43;5.97;;;3.23;;
76115;SDS011;64847;45.778;12.802;2023-03-31T16:47:10;5.37;;;3.37;;
76115;SDS011;64847;45.778;12.802;2023-03-31T16:49:38;9.00;;;3.63;;
76115;SDS011;64847;45.778;12.802;2023-03-31T16:52:04;7.67;;;3.70;;
76115;SDS011;64847;45.778;12.802;2023-03-31T16:54:30;5.57;;;3.70;;
76115;SDS011;64847;45.778;12.802;2023-03-31T16:56:56;7.93;;;4.03;;
76115;SDS011;64847;45.778;12.802;2023-03-31T16:59:22;7.30;;;4.23;;
76115;SDS011;64847;45.778;12.802;2023-03-31T17:01:48;8.70;;;4.53;;
76115;SDS011;64847;45.778;12.802;2023-03-31T17:04:14;9.10;;;4.23;;
76115;SDS011;64847;45.778;12.802;2023-03-31T17:06:39;9.33;;;5.63;;
76115;SDS011;64847;45.778;12.802;2023-03-31T17:09:05;8.07;;;4.80;;
76115;SDS011;64847;45.778;12.802;2023-03-31T17:11:31;8.53;;;4.80;;
76115;SDS011;64847;45.778;12.802;2023-03-31T17:13:57;7.93;;;4.60;;
76115;SDS011;64847;45.778;12.802;2023-03-31T17:16:24;9.60;;;4.90;;
76115;SDS011;64847;45.778;12.802;2023-03-31T17:18:49;10.30;;;5.40;;
76115;SDS011;64847;45.778;12.802;2023-03-31T17:21:15;8.10;;;5.27;;
76115;SDS011;64847;45.778;12.802;2023-03-31T17:23:43;13.00;;;5.47;;
76115;SDS011;64847;45.778;12.802;2023-03-31T17:26:09;10.23;;;4.57;;
76115;SDS011;64847;45.778;12.802;2023-03-31T17:28:36;9.37;;;4.10;;
76115;SDS011;64847;45.778;12.802;2023-03-31T17:31:09;6.43;;;4.20;;
76115;SDS011;64847;45.778;12.802;2023-03-31T17:33:38;10.30;;;3.90;;
76115;SDS011;64847;45.778;12.802;2023-03-31T17:36:04;7.83;;;3.47;;
76115;SDS011;64847;45.778;12.802;2023-03-31T17:38:29;7.60;;;3.73;;
76115;SDS011;64847;45.778;12.802;2023-03-31T17:40:55;9.17;;;3.63;;
76115;SDS011;64847;45.778;12.802;2023-03-31T17:43:29;6.87;;;3.67;;
76115;SDS011;64847;45.778;12.802;2023-03-31T17:46:01;7.57;;;3.40;;
76115;SDS011;64847;45.778;12.802;2023-03-31T17:48:29;8.87;;;3.90;;
76115;SDS011;64847;45.778;12.802;2023-03-31T17:50:54;5.30;;;3.17;;
76115;SDS011;64847;45.778;12.802;2023-03-31T17:53:20;6.30;;;3.43;;
76115;SDS011;64847;45.778;12.802;2023-03-31T17:55:45;6.03;;;3.50;;
76115;SDS011;64847;45.778;12.802;2023-03-31T17:58:10;8.10;;;3.23;;
76115;SDS011;64847;45.778;12.802;2023-03-31T18:00:38;7.13;;;3.67;;
76115;SDS011;64847;45.778;12.802;2023-03-31T18:03:04;5.17;;;3.90;;
76115;SDS011;64847;45.778;12.802;2023-03-31T18:05:29;9.53;;;4.03;;
76115;SDS011;64847;45.778;12.802;2023-03-31T18:07:57;5.50;;;3.97;;
76115;SDS011;64847;45.778;12.802;2023-03-31T18:10:23;9.53;;;4.10;;